Time;durP1;ratioP1;P1;durP2;ratioP2;P2;SDS_P1;SDS_P2;PMS_P1;PMS_P2;Temp;Humidity;BMP_temperature;BMP_pressure;BME280_temperature;BME280_humidity;BME280_pressure;Samples;Min_cycle;Max_cycle;Signal;HPM_P1;HPM_P2
2020/12/25 00:02:12;;;;;;;1.35;0.80;;;;;;;;;;5113043;28;20146;-69
2020/12/25 00:04:38;;;;;;;1.63;0.85;;;;;;;;;;5112342;28;20076;-70
2020/12/25 00:07:04;;;;;;;0.60;0.50;;;;;;;;;;5112371;28;20125;-70
2020/12/25 00:09:30;;;;;;;0.60;0.60;;;;;;;;;;5112867;28;20127;-70
2020/12/25 00:11:58;;;;;;;0.70;0.70;;;;;;;;;;5112356;28;20438;-70
2020/12/25 00:14:24;;;;;;;0.45;0.43;;;;;;;;;;5112798;28;20028;-70
2020/12/25 00:16:50;;;;;;;1.25;0.95;;;;;;;;;;5111885;28;20063;-70
2020/12/25 00:19:16;;;;;;;0.60;0.60;;;;;;;;;;5112790;28;20099;-70
2020/12/25 00:21:42;;;;;;;1.88;1.42;;;;;;;;;;5112215;28;20090;-70
2020/12/25 00:24:09;;;;;;;0.82;0.40;;;;;;;;;;5111958;28;20024;-70
2020/12/25 00:26:35;;;;;;;0.55;0.55;;;;;;;;;;5111700;28;20088;-70
2020/12/25 00:29:02;;;;;;;0.68;0.68;;;;;;;;;;5111395;28;20052;-70
2020/12/25 00:31:30;;;;;;;0.70;0.70;;;;;;;;;;5111939;28;20485;-69
2020/12/25 00:33:57;;;;;;;0.40;0.40;;;;;;;;;;5111775;28;20043;-69
2020/12/25 00:36:30;;;;;;;0.85;0.68;;;;;;;;;;5111226;28;20020;-69
2020/12/25 00:38:57;;;;;;;0.40;0.40;;;;;;;;;;5091328;28;20097;-70
2020/12/25 00:41:23;;;;;;;0.77;0.47;;;;;;;;;;5091998;28;20406;-69
2020/12/25 00:43:49;;;;;;;1.25;0.57;;;;;;;;;;5090935;28;20402;-70
2020/12/25 00:46:15;;;;;;;0.60;0.52;;;;;;;;;;5091462;28;20028;-69
2020/12/25 00:48:41;;;;;;;0.52;0.52;;;;;;;;;;5091508;28;20024;-69
2020/12/25 00:51:14;;;;;;;0.90;0.90;;;;;;;;;;5091718;28;20043;-69
2020/12/25 00:53:41;;;;;;;0.97;0.90;;;;;;;;;;5091246;28;20032;-69
2020/12/25 00:56:07;;;;;;;1.23;0.60;;;;;;;;;;5091288;28;20281;-70
2020/12/25 00:58:33;;;;;;;0.50;0.40;;;;;;;;;;5091552;28;20474;-69
2020/12/25 01:00:59;;;;;;;4.00;1.05;;;;;;;;;;5090906;28;20027;-70
2020/12/25 01:03:25;;;;;;;0.52;0.40;;;;;;;;;;5091325;28;20121;-70
2020/12/25 01:05:51;;;;;;;0.90;0.50;;;;;;;;;;5090403;28;20059;-69
2020/12/25 01:08:17;;;;;;;0.68;0.38;;;;;;;;;;5091283;28;20516;-69
2020/12/25 01:10:43;;;;;;;0.85;0.40;;;;;;;;;;5090742;28;20044;-69
2020/12/25 01:13:09;;;;;;;0.52;0.40;;;;;;;;;;5091023;28;20119;-69
2020/12/25 01:15:35;;;;;;;0.85;0.52;;;;;;;;;;5091036;28;20119;-69
2020/12/25 01:18:01;;;;;;;0.98;0.60;;;;;;;;;;5103532;28;20031;-69
2020/12/25 01:20:27;;;;;;;0.40;0.30;;;;;;;;;;5111631;28;20099;-70
2020/12/25 01:22:53;;;;;;;0.60;0.60;;;;;;;;;;5110675;28;20042;-69
2020/12/25 01:25:19;;;;;;;0.20;0.20;;;;;;;;;;5111048;28;20027;-69
2020/12/25 01:27:45;;;;;;;1.52;0.40;;;;;;;;;;5110352;28;20023;-69
2020/12/25 01:30:11;;;;;;;0.40;0.40;;;;;;;;;;5111471;28;20134;-69
2020/12/25 01:32:38;;;;;;;0.75;0.50;;;;;;;;;;5110894;28;20424;-69
2020/12/25 01:35:05;;;;;;;0.38;0.38;;;;;;;;;;5110414;28;20035;-69
2020/12/25 01:37:31;;;;;;;0.47;0.43;;;;;;;;;;5111574;28;20031;-69
2020/12/25 01:39:57;;;;;;;0.98;0.52;;;;;;;;;;5110486;28;20084;-69
2020/12/25 01:42:23;;;;;;;0.40;0.40;;;;;;;;;;5110972;28;20473;-69
2020/12/25 01:44:49;;;;;;;0.57;0.57;;;;;;;;;;5110487;28;20393;-69
2020/12/25 01:47:16;;;;;;;0.60;0.60;;;;;;;;;;5108910;28;20035;-69
2020/12/25 01:49:44;;;;;;;0.40;0.40;;;;;;;;;;5089992;28;20042;-69
2020/12/25 01:52:10;;;;;;;0.50;0.50;;;;;;;;;;5090515;28;20101;-69
2020/12/25 01:54:36;;;;;;;0.35;0.35;;;;;;;;;;5090082;28;20056;-69
2020/12/25 01:57:03;;;;;;;0.75;0.75;;;;;;;;;;5089796;28;20036;-69
2020/12/25 01:59:29;;;;;;;0.75;0.75;;;;;;;;;;5090669;28;20032;-69
2020/12/25 02:01:55;;;;;;;0.52;0.52;;;;;;;;;;5089613;28;20024;-70
2020/12/25 02:04:21;;;;;;;0.75;0.70;;;;;;;;;;5089634;28;20039;-69
2020/12/25 02:06:47;;;;;;;0.85;0.65;;;;;;;;;;5088564;28;20032;-69
2020/12/25 02:09:13;;;;;;;0.47;0.40;;;;;;;;;;5090093;28;20050;-69
2020/12/25 02:11:39;;;;;;;0.88;0.65;;;;;;;;;;5089998;28;20032;-69
2020/12/25 02:14:05;;;;;;;0.40;0.40;;;;;;;;;;5089532;28;20020;-69
2020/12/25 02:16:31;;;;;;;1.25;0.65;;;;;;;;;;5090090;28;20032;-69
2020/12/25 02:18:57;;;;;;;1.00;0.90;;;;;;;;;;5089557;28;20035;-69
2020/12/25 02:21:23;;;;;;;0.93;0.77;;;;;;;;;;5089674;28;20028;-69
2020/12/25 02:23:50;;;;;;;0.60;0.60;;;;;;;;;;5089103;28;20506;-69
2020/12/25 02:26:16;;;;;;;0.60;0.40;;;;;;;;;;5089881;28;20196;-69
2020/12/25 02:28:42;;;;;;;0.50;0.50;;;;;;;;;;5089181;28;20123;-69
2020/12/25 02:31:08;;;;;;;0.22;0.20;;;;;;;;;;5089971;28;20039;-69
2020/12/25 02:33:34;;;;;;;0.40;0.40;;;;;;;;;;5089678;28;20043;-69
2020/12/25 02:36:00;;;;;;;1.48;1.05;;;;;;;;;;5088706;28;20097;-69
2020/12/25 02:38:27;;;;;;;0.75;0.75;;;;;;;;;;5107338;28;20100;-69
2020/12/25 02:40:53;;;;;;;2.40;0.80;;;;;;;;;;5109163;28;20024;-69
2020/12/25 02:43:19;;;;;;;0.52;0.40;;;;;;;;;;5109836;28;20059;-69
2020/12/25 02:45:45;;;;;;;0.50;0.50;;;;;;;;;;5109349;28;20027;-69
2020/12/25 02:48:11;;;;;;;0.63;0.60;;;;;;;;;;5109345;28;20028;-69
2020/12/25 02:50:37;;;;;;;0.73;0.70;;;;;;;;;;5109643;28;20486;-69
2020/12/25 02:53:04;;;;;;;0.52;0.52;;;;;;;;;;5109388;28;20099;-69
2020/12/25 02:55:30;;;;;;;0.30;0.30;;;;;;;;;;5109699;28;20024;-69
2020/12/25 02:57:56;;;;;;;0.98;0.45;;;;;;;;;;5109056;28;20028;-69
2020/12/25 03:00:22;;;;;;;0.25;0.25;;;;;;;;;;5109857;28;20015;-69
2020/12/25 03:02:48;;;;;;;0.63;0.50;;;;;;;;;;5108948;28;20032;-69
2020/12/25 03:05:14;;;;;;;1.88;0.85;;;;;;;;;;5109132;28;20252;-69
2020/12/25 03:07:40;;;;;;;1.20;0.50;;;;;;;;;;5109113;28;20028;-69
2020/12/25 03:10:06;;;;;;;0.75;0.55;;;;;;;;;;5109447;28;20028;-69
2020/12/25 03:12:32;;;;;;;0.30;0.30;;;;;;;;;;5109785;28;20552;-69
2020/12/25 03:14:58;;;;;;;1.20;0.55;;;;;;;;;;5108847;28;20501;-69
2020/12/25 03:17:24;;;;;;;0.50;0.50;;;;;;;;;;5101915;28;20153;-69
2020/12/25 03:19:50;;;;;;;0.40;0.40;;;;;;;;;;5088528;28;20039;-69
2020/12/25 03:22:16;;;;;;;0.47;0.43;;;;;;;;;;5089082;28;20051;-69
2020/12/25 03:24:42;;;;;;;0.70;0.28;;;;;;;;;;5088363;28;20482;-69
2020/12/25 03:27:08;;;;;;;0.30;0.30;;;;;;;;;;5088940;28;20028;-69
2020/12/25 03:29:34;;;;;;;0.85;0.47;;;;;;;;;;5089025;28;20056;-69
2020/12/25 03:32:00;;;;;;;0.30;0.30;;;;;;;;;;5088404;28;20027;-69
2020/12/25 03:34:28;;;;;;;0.50;0.38;;;;;;;;;;5088555;28;20036;-69
2020/12/25 03:36:54;;;;;;;0.70;0.43;;;;;;;;;;5088270;28;20044;-69
2020/12/25 03:39:20;;;;;;;0.80;0.50;;;;;;;;;;5088998;28;20032;-69
2020/12/25 03:41:47;;;;;;;0.68;0.68;;;;;;;;;;5088025;28;20028;-69
2020/12/25 03:44:13;;;;;;;0.40;0.40;;;;;;;;;;5088614;28;20055;-69
2020/12/25 03:46:39;;;;;;;0.80;0.50;;;;;;;;;;5088849;28;20394;-69
2020/12/25 03:49:05;;;;;;;0.45;0.45;;;;;;;;;;5106064;28;20066;-69
2020/12/25 03:51:32;;;;;;;0.68;0.55;;;;;;;;;;5109481;28;20343;-69
2020/12/25 03:53:58;;;;;;;0.93;0.68;;;;;;;;;;5108666;28;20042;-69
2020/12/25 03:56:24;;;;;;;0.85;0.40;;;;;;;;;;5109179;28;20086;-69
2020/12/25 03:58:50;;;;;;;0.70;0.55;;;;;;;;;;5108476;28;20408;-69
2020/12/25 04:01:16;;;;;;;1.55;0.40;;;;;;;;;;5111046;28;20023;-69
2020/12/25 04:03:42;;;;;;;0.55;0.40;;;;;;;;;;5112418;28;20359;-69
2020/12/25 04:06:09;;;;;;;0.95;0.85;;;;;;;;;;5112396;28;20023;-69
2020/12/25 04:08:35;;;;;;;0.68;0.45;;;;;;;;;;5112935;28;20054;-69
2020/12/25 04:11:01;;;;;;;0.88;0.63;;;;;;;;;;5112312;28;20043;-69
2020/12/25 04:13:27;;;;;;;0.75;0.50;;;;;;;;;;5112904;28;20028;-69
2020/12/25 04:15:53;;;;;;;1.20;0.40;;;;;;;;;;5111804;28;20035;-69
2020/12/25 04:18:19;;;;;;;0.60;0.20;;;;;;;;;;5112791;28;20023;-69
2020/12/25 04:20:45;;;;;;;0.93;0.50;;;;;;;;;;5112018;28;20032;-69
2020/12/25 04:23:11;;;;;;;0.80;0.73;;;;;;;;;;5112301;28;20241;-69
2020/12/25 04:25:37;;;;;;;0.40;0.40;;;;;;;;;;5112209;28;20196;-69
2020/12/25 04:28:04;;;;;;;0.50;0.50;;;;;;;;;;5112029;28;20047;-69
2020/12/25 04:30:30;;;;;;;0.30;0.30;;;;;;;;;;5112772;28;20034;-69
2020/12/25 04:32:56;;;;;;;0.40;0.40;;;;;;;;;;5111599;28;20036;-69
2020/12/25 04:35:22;;;;;;;0.50;0.50;;;;;;;;;;5111762;28;20043;-69
2020/12/25 04:37:48;;;;;;;0.38;0.30;;;;;;;;;;5099396;28;20478;-69
2020/12/25 04:40:14;;;;;;;0.52;0.50;;;;;;;;;;5091747;28;20062;-69
2020/12/25 04:42:41;;;;;;;0.82;0.50;;;;;;;;;;5091141;28;20024;-69
2020/12/25 04:45:08;;;;;;;1.58;0.60;;;;;;;;;;5091214;28;20024;-69
2020/12/25 04:47:34;;;;;;;0.50;0.30;;;;;;;;;;5091548;28;20032;-69
2020/12/25 04:50:04;;;;;;;1.17;0.55;;;;;;;;;;5090842;28;20409;-69
2020/12/25 04:52:30;;;;;;;0.35;0.35;;;;;;;;;;5091512;28;20073;-69
2020/12/25 04:54:57;;;;;;;0.60;0.60;;;;;;;;;;5090797;28;20032;-69
2020/12/25 04:57:23;;;;;;;0.57;0.30;;;;;;;;;;5091346;28;20386;-69
2020/12/25 04:59:49;;;;;;;0.30;0.30;;;;;;;;;;5090815;28;20398;-69
2020/12/25 05:02:16;;;;;;;0.77;0.50;;;;;;;;;;5091478;28;20024;-69
2020/12/25 05:04:42;;;;;;;0.43;0.35;;;;;;;;;;5090440;28;20031;-69
2020/12/25 05:07:08;;;;;;;1.25;0.30;;;;;;;;;;5091253;28;20467;-69
2020/12/25 05:09:34;;;;;;;0.20;0.20;;;;;;;;;;5091340;28;20119;-69
2020/12/25 05:12:00;;;;;;;0.30;0.30;;;;;;;;;;5090264;28;20589;-69
2020/12/25 05:14:32;;;;;;;0.20;0.20;;;;;;;;;;5091040;28;20020;-69
2020/12/25 05:16:58;;;;;;;0.30;0.30;;;;;;;;;;5094404;28;20035;-69
2020/12/25 05:19:29;;;;;;;0.30;0.30;;;;;;;;;;5111491;28;20032;-69
2020/12/25 05:21:59;;;;;;;0.40;0.40;;;;;;;;;;5110774;28;20114;-69
2020/12/25 05:24:25;;;;;;;0.30;0.25;;;;;;;;;;5111344;28;20077;-69
2020/12/25 05:26:55;;;;;;;0.38;0.38;;;;;;;;;;5110732;28;20031;-69
2020/12/25 05:29:22;;;;;;;1.38;0.68;;;;;;;;;;5111024;28;20246;-69
2020/12/25 05:31:49;;;;;;;2.05;0.30;;;;;;;;;;5111014;28;20381;-69
2020/12/25 05:34:16;;;;;;;0.28;0.28;;;;;;;;;;5111009;28;20031;-69
2020/12/25 05:36:49;;;;;;;0.93;0.30;;;;;;;;;;5110038;28;20023;-69
2020/12/25 05:39:24;;;;;;;0.52;0.30;;;;;;;;;;5111135;28;20023;-69
2020/12/25 05:41:52;;;;;;;0.38;0.30;;;;;;;;;;5110626;28;20359;-69
2020/12/25 05:44:18;;;;;;;0.28;0.28;;;;;;;;;;5110950;28;20466;-69
2020/12/25 05:46:45;;;;;;;0.45;0.40;;;;;;;;;;5110010;28;20027;-69
2020/12/25 05:49:12;;;;;;;0.65;0.40;;;;;;;;;;5092787;28;20039;-69
2020/12/25 05:51:46;;;;;;;0.20;0.20;;;;;;;;;;5090262;28;20024;-69
2020/12/25 05:54:15;;;;;;;0.52;0.35;;;;;;;;;;5090139;28;20081;-69
2020/12/25 05:56:41;;;;;;;0.40;0.40;;;;;;;;;;5089918;28;20028;-69
2020/12/25 05:59:10;;;;;;;0.65;0.40;;;;;;;;;;5090706;28;20103;-69
2020/12/25 06:01:36;;;;;;;1.27;0.30;;;;;;;;;;5090576;28;20107;-69
2020/12/25 06:04:02;;;;;;;0.47;0.47;;;;;;;;;;5089888;28;20689;-69
2020/12/25 06:06:29;;;;;;;0.30;0.30;;;;;;;;;;5089713;28;20420;-69
2020/12/25 06:08:59;;;;;;;0.20;0.20;;;;;;;;;;5089580;28;20059;-69
2020/12/25 06:11:29;;;;;;;0.40;0.25;;;;;;;;;;5090039;28;20367;-69
2020/12/25 06:13:55;;;;;;;5.55;0.73;;;;;;;;;;5089295;28;20034;-69
2020/12/25 06:16:21;;;;;;;0.32;0.32;;;;;;;;;;5089852;28;20034;-69
2020/12/25 06:18:57;;;;;;;0.30;0.30;;;;;;;;;;5089573;28;20145;-69
2020/12/25 06:21:23;;;;;;;0.75;0.63;;;;;;;;;;5089903;28;20029;-69
2020/12/25 06:23:49;;;;;;;0.90;0.70;;;;;;;;;;5088462;28;20067;-69
2020/12/25 06:26:19;;;;;;;0.30;0.20;;;;;;;;;;5089472;28;20074;-69
2020/12/25 06:28:45;;;;;;;0.20;0.20;;;;;;;;;;5088854;28;20510;-69
2020/12/25 06:31:29;;;;;;;1.42;0.75;;;;;;;;;;5090047;28;20464;-69
2020/12/25 06:33:56;;;;;;;0.20;0.20;;;;;;;;;;5088925;28;20214;-69
2020/12/25 06:36:28;;;;;;;0.35;0.28;;;;;;;;;;5089313;28;20070;-69
2020/12/25 06:38:54;;;;;;;0.57;0.20;;;;;;;;;;5109251;28;20164;-69
2020/12/25 06:41:22;;;;;;;0.55;0.40;;;;;;;;;;5109783;28;20027;-69
2020/12/25 06:43:53;;;;;;;1.10;0.60;;;;;;;;;;5106282;28;20035;-69
2020/12/25 06:46:34;;;;;;;1.02;0.60;;;;;;;;;;5107177;28;20098;-69
2020/12/25 06:49:09;;;;;;;3.22;0.30;;;;;;;;;;5106930;28;20127;-69
2020/12/25 06:51:41;;;;;;;1.20;0.75;;;;;;;;;;5107754;28;20050;-69
2020/12/25 06:54:13;;;;;;;0.17;0.17;;;;;;;;;;5107171;28;20104;-69
2020/12/25 06:56:42;;;;;;;0.63;0.63;;;;;;;;;;5106806;28;20032;-69
2020/12/25 06:59:15;;;;;;;0.30;0.30;;;;;;;;;;5107220;28;20397;-69
2020/12/25 07:01:43;;;;;;;0.40;0.40;;;;;;;;;;5106958;28;20027;-69
2020/12/25 07:04:24;;;;;;;0.95;0.52;;;;;;;;;;5107042;28;20047;-69
2020/12/25 07:06:52;;;;;;;1.85;1.23;;;;;;;;;;5105480;28;20047;-69
2020/12/25 07:09:19;;;;;;;1.42;0.30;;;;;;;;;;5107477;28;20027;-69
2020/12/25 07:11:49;;;;;;;0.65;0.47;;;;;;;;;;5106719;28;20042;-69
2020/12/25 07:14:15;;;;;;;0.30;0.30;;;;;;;;;;5106445;28;20429;-69
2020/12/25 07:16:41;;;;;;;0.50;0.50;;;;;;;;;;5104573;28;20023;-69
2020/12/25 07:19:07;;;;;;;0.40;0.40;;;;;;;;;;5087341;28;20016;-69
2020/12/25 07:21:34;;;;;;;0.68;0.57;;;;;;;;;;5086924;28;20549;-69
2020/12/25 07:24:00;;;;;;;0.30;0.30;;;;;;;;;;5085615;28;20067;-69
2020/12/25 07:26:26;;;;;;;0.73;0.30;;;;;;;;;;5086272;28;20022;-69
2020/12/25 07:28:53;;;;;;;0.30;0.20;;;;;;;;;;5086232;28;20048;-69
2020/12/25 07:31:19;;;;;;;2.03;0.50;;;;;;;;;;5086726;28;20114;-69
2020/12/25 07:33:52;;;;;;;0.40;0.40;;;;;;;;;;5085853;28;20509;-69
2020/12/25 07:36:18;;;;;;;0.47;0.30;;;;;;;;;;5088847;28;20020;-69
2020/12/25 07:38:44;;;;;;;0.75;0.47;;;;;;;;;;5089587;28;20031;-69
2020/12/25 07:41:10;;;;;;;0.50;0.40;;;;;;;;;;5090978;28;20017;-69
2020/12/25 07:43:36;;;;;;;0.65;0.40;;;;;;;;;;5090097;28;20032;-69
2020/12/25 07:46:02;;;;;;;0.80;0.38;;;;;;;;;;5089326;28;20030;-69
2020/12/25 07:48:28;;;;;;;1.08;0.40;;;;;;;;;;5102501;28;20028;-69
2020/12/25 07:50:55;;;;;;;0.50;0.50;;;;;;;;;;5110732;28;20046;-69
2020/12/25 07:53:22;;;;;;;0.35;0.35;;;;;;;;;;5110343;28;20103;-69
2020/12/25 07:55:48;;;;;;;0.43;0.30;;;;;;;;;;5109670;28;20050;-69
2020/12/25 07:58:18;;;;;;;0.93;0.47;;;;;;;;;;5110556;28;20031;-69
2020/12/25 08:00:44;;;;;;;0.30;0.30;;;;;;;;;;5110392;28;20049;-69
2020/12/25 08:03:11;;;;;;;1.50;0.50;;;;;;;;;;5110346;28;20031;-69
2020/12/25 08:05:38;;;;;;;0.60;0.60;;;;;;;;;;5108743;28;20030;-69
2020/12/25 08:08:04;;;;;;;0.88;0.30;;;;;;;;;;5110683;28;20027;-69
2020/12/25 08:10:31;;;;;;;0.98;0.40;;;;;;;;;;5110136;28;20027;-69
2020/12/25 08:12:58;;;;;;;0.63;0.28;;;;;;;;;;5109657;28;20043;-69
2020/12/25 08:15:25;;;;;;;0.50;0.50;;;;;;;;;;5109938;28;20031;-69
2020/12/25 08:17:54;;;;;;;0.57;0.30;;;;;;;;;;5109895;28;20099;-69
2020/12/25 08:20:24;;;;;;;1.35;0.73;;;;;;;;;;5110772;28;20024;-69
2020/12/25 08:22:50;;;;;;;0.40;0.40;;;;;;;;;;5109302;28;20055;-69
2020/12/25 08:25:18;;;;;;;0.98;0.52;;;;;;;;;;5109607;28;20106;-69
2020/12/25 08:27:45;;;;;;;0.30;0.30;;;;;;;;;;5109184;28;20059;-69
2020/12/25 08:30:11;;;;;;;0.93;0.47;;;;;;;;;;5110209;28;20040;-69
2020/12/25 08:32:37;;;;;;;1.08;0.50;;;;;;;;;;5109768;28;20058;-69
2020/12/25 08:35:10;;;;;;;0.47;0.32;;;;;;;;;;5108426;28;20363;-69
2020/12/25 08:37:36;;;;;;;0.65;0.45;;;;;;;;;;5099634;28;20056;-69
2020/12/25 08:40:15;;;;;;;0.73;0.50;;;;;;;;;;5088974;28;20027;-69
2020/12/25 08:42:41;;;;;;;0.45;0.45;;;;;;;;;;5088644;28;20470;-69
2020/12/25 08:45:07;;;;;;;1.13;0.73;;;;;;;;;;5089024;28;20020;-69
2020/12/25 08:47:34;;;;;;;0.50;0.47;;;;;;;;;;5088662;28;20510;-69
2020/12/25 08:50:00;;;;;;;1.52;0.68;;;;;;;;;;5088943;28;20533;-69
2020/12/25 08:52:26;;;;;;;0.63;0.63;;;;;;;;;;5088919;28;20039;-69
2020/12/25 08:54:56;;;;;;;0.45;0.45;;;;;;;;;;5088866;28;20438;-69
2020/12/25 08:57:22;;;;;;;0.60;0.60;;;;;;;;;;5088840;28;20043;-69
2020/12/25 08:59:48;;;;;;;0.57;0.45;;;;;;;;;;5088901;28;20020;-69
2020/12/25 09:02:16;;;;;;;0.82;0.82;;;;;;;;;;5085986;28;20040;-69
2020/12/25 09:04:42;;;;;;;2.30;0.40;;;;;;;;;;5087215;28;20074;-69
2020/12/25 09:07:08;;;;;;;0.60;0.60;;;;;;;;;;5087410;28;20471;-69
2020/12/25 09:09:34;;;;;;;1.38;0.70;;;;;;;;;;5088230;28;20085;-69
2020/12/25 09:12:00;;;;;;;0.50;0.50;;;;;;;;;;5087444;28;20089;-69
2020/12/25 09:14:26;;;;;;;3.60;1.00;;;;;;;;;;5087565;28;20016;-69
2020/12/25 09:16:52;;;;;;;2.45;0.95;;;;;;;;;;5090049;28;20264;-69
2020/12/25 09:19:18;;;;;;;1.10;0.77;;;;;;;;;;5108271;28;20023;-69
2020/12/25 09:21:44;;;;;;;1.20;0.77;;;;;;;;;;5108180;28;20031;-69
2020/12/25 09:24:10;;;;;;;0.55;0.55;;;;;;;;;;5107597;28;20034;-69
2020/12/25 09:26:36;;;;;;;0.40;0.40;;;;;;;;;;5108255;28;20108;-69
2020/12/25 09:29:02;;;;;;;1.52;1.10;;;;;;;;;;5107732;28;20051;-69
2020/12/25 09:31:28;;;;;;;0.82;0.52;;;;;;;;;;5108619;28;20108;-69
2020/12/25 09:33:54;;;;;;;0.95;0.82;;;;;;;;;;5107382;28;20019;-69
2020/12/25 09:36:20;;;;;;;1.15;1.10;;;;;;;;;;5107793;28;20019;-69
2020/12/25 09:38:46;;;;;;;2.28;1.38;;;;;;;;;;5107935;28;20031;-69
2020/12/25 09:41:13;;;;;;;1.20;0.50;;;;;;;;;;5108824;28;20020;-69
2020/12/25 09:43:39;;;;;;;0.95;0.82;;;;;;;;;;5108051;28;20036;-69
2020/12/25 09:46:05;;;;;;;1.00;0.95;;;;;;;;;;5108019;28;20055;-69
2020/12/25 09:48:31;;;;;;;1.67;0.90;;;;;;;;;;5096172;28;20047;-69
2020/12/25 09:50:58;;;;;;;0.60;0.60;;;;;;;;;;5087575;28;20063;-69
2020/12/25 09:53:24;;;;;;;0.73;0.73;;;;;;;;;;5088114;28;20035;-69
2020/12/25 09:55:50;;;;;;;1.50;1.00;;;;;;;;;;5086922;28;20478;-69
2020/12/25 09:58:17;;;;;;;3.03;0.80;;;;;;;;;;5086573;28;20024;-69
2020/12/25 10:00:43;;;;;;;0.65;0.65;;;;;;;;;;5087827;28;20036;-69
2020/12/25 10:03:09;;;;;;;0.70;0.70;;;;;;;;;;5087119;28;20048;-69
2020/12/25 10:05:35;;;;;;;0.85;0.75;;;;;;;;;;5085867;28;20035;-69
2020/12/25 10:08:01;;;;;;;0.80;0.80;;;;;;;;;;5087332;28;20031;-69
2020/12/25 10:10:27;;;;;;;1.73;0.75;;;;;;;;;;5087530;28;20123;-69
2020/12/25 10:12:54;;;;;;;1.38;1.10;;;;;;;;;;5086818;28;20053;-69
2020/12/25 10:15:20;;;;;;;1.10;0.88;;;;;;;;;;5087036;28;20024;-69
2020/12/25 10:17:46;;;;;;;0.98;0.98;;;;;;;;;;5086339;28;20119;-69
2020/12/25 10:20:12;;;;;;;0.50;0.50;;;;;;;;;;5087986;28;20055;-69
2020/12/25 10:22:38;;;;;;;1.17;1.08;;;;;;;;;;5087116;28;20024;-69
2020/12/25 10:25:05;;;;;;;0.90;0.88;;;;;;;;;;5086760;28;20449;-69
2020/12/25 10:27:31;;;;;;;0.73;0.60;;;;;;;;;;5087176;28;20055;-69
2020/12/25 10:29:57;;;;;;;0.68;0.65;;;;;;;;;;5086479;28;20062;-69
2020/12/25 10:32:23;;;;;;;0.80;0.80;;;;;;;;;;5087126;28;20131;-69
2020/12/25 10:34:49;;;;;;;0.60;0.47;;;;;;;;;;5085815;28;20032;-69
2020/12/25 10:37:15;;;;;;;1.52;0.57;;;;;;;;;;5094329;28;20030;-69
2020/12/25 10:39:41;;;;;;;0.73;0.70;;;;;;;;;;5107038;28;20023;-69
2020/12/25 10:42:08;;;;;;;1.45;0.90;;;;;;;;;;5107661;28;20257;-69
2020/12/25 10:44:34;;;;;;;1.13;0.82;;;;;;;;;;5107132;28;20049;-69
2020/12/25 10:47:01;;;;;;;1.00;0.82;;;;;;;;;;5106058;28;20118;-69
2020/12/25 10:49:27;;;;;;;1.45;1.08;;;;;;;;;;5107911;28;20024;-69
2020/12/25 10:51:53;;;;;;;1.23;0.82;;;;;;;;;;5106877;28;20114;-69
2020/12/25 10:54:19;;;;;;;1.52;0.55;;;;;;;;;;5106994;28;20452;-69
2020/12/25 10:56:46;;;;;;;1.42;1.33;;;;;;;;;;5106021;28;20110;-69
2020/12/25 10:59:12;;;;;;;0.73;0.70;;;;;;;;;;5107545;28;20051;-69
2020/12/25 11:01:39;;;;;;;0.55;0.43;;;;;;;;;;5107125;28;20027;-69
2020/12/25 11:04:05;;;;;;;2.08;1.00;;;;;;;;;;5106547;28;20497;-69
2020/12/25 11:06:31;;;;;;;0.95;0.63;;;;;;;;;;5105730;28;20111;-69
2020/12/25 11:08:57;;;;;;;0.73;0.70;;;;;;;;;;5106987;28;20467;-69
2020/12/25 11:11:27;;;;;;;1.30;1.08;;;;;;;;;;5111150;28;20028;-69
2020/12/25 11:13:53;;;;;;;0.90;0.55;;;;;;;;;;5110192;28;20559;-69
2020/12/25 11:16:22;;;;;;;1.10;0.80;;;;;;;;;;5111067;28;20320;-69
2020/12/25 11:18:48;;;;;;;1.58;0.57;;;;;;;;;;5091438;28;20024;-69
2020/12/25 11:21:18;;;;;;;0.85;0.50;;;;;;;;;;5089524;28;20017;-69
2020/12/25 11:23:44;;;;;;;1.95;1.10;;;;;;;;;;5088131;28;20514;-69
2020/12/25 11:26:18;;;;;;;0.63;0.40;;;;;;;;;;5089595;28;20123;-69
2020/12/25 11:28:44;;;;;;;0.70;0.52;;;;;;;;;;5089305;28;20178;-69
2020/12/25 11:31:11;;;;;;;0.60;0.60;;;;;;;;;;5090239;28;20059;-69
2020/12/25 11:33:37;;;;;;;3.38;1.02;;;;;;;;;;5089373;28;20020;-69
2020/12/25 11:36:03;;;;;;;0.73;0.73;;;;;;;;;;5087971;28;20046;-69
2020/12/25 11:38:29;;;;;;;0.85;0.57;;;;;;;;;;5089655;28;20020;-69
2020/12/25 11:40:55;;;;;;;1.58;1.10;;;;;;;;;;5090034;28;20031;-69
2020/12/25 11:43:21;;;;;;;0.50;0.50;;;;;;;;;;5089401;28;20267;-69
2020/12/25 11:45:47;;;;;;;1.42;0.63;;;;;;;;;;5089044;28;20031;-69
2020/12/25 11:48:14;;;;;;;1.27;0.70;;;;;;;;;;5099657;28;20027;-69
2020/12/25 11:50:40;;;;;;;1.70;1.00;;;;;;;;;;5110198;28;20123;-69
2020/12/25 11:53:06;;;;;;;1.20;0.90;;;;;;;;;;5109826;28;20505;-69
2020/12/25 11:55:32;;;;;;;0.85;0.82;;;;;;;;;;5109910;28;20051;-69
2020/12/25 11:57:58;;;;;;;2.55;0.65;;;;;;;;;;5109138;28;20032;-69
2020/12/25 12:00:24;;;;;;;1.35;0.50;;;;;;;;;;5109960;28;20038;-69
2020/12/25 12:02:50;;;;;;;1.38;0.93;;;;;;;;;;5109569;28;20094;-69
2020/12/25 12:05:16;;;;;;;0.80;0.80;;;;;;;;;;5108367;28;20031;-69
2020/12/25 12:07:42;;;;;;;1.33;1.10;;;;;;;;;;5109074;28;20027;-69
2020/12/25 12:10:08;;;;;;;0.60;0.60;;;;;;;;;;5109643;28;20028;-69
2020/12/25 12:12:34;;;;;;;1.77;1.27;;;;;;;;;;5109380;28;20026;-69
2020/12/25 12:15:00;;;;;;;0.70;0.70;;;;;;;;;;5108560;28;20037;-69
2020/12/25 12:17:26;;;;;;;0.60;0.60;;;;;;;;;;5109254;28;20027;-69
2020/12/25 12:19:52;;;;;;;1.15;0.85;;;;;;;;;;5108847;28;20024;-69
2020/12/25 12:22:18;;;;;;;0.88;0.88;;;;;;;;;;5108593;28;20020;-69
2020/12/25 12:24:44;;;;;;;0.75;0.75;;;;;;;;;;5108296;28;20032;-69
2020/12/25 12:27:10;;;;;;;0.80;0.50;;;;;;;;;;5108970;28;20031;-69
2020/12/25 12:29:36;;;;;;;1.10;0.80;;;;;;;;;;5108671;28;20044;-69
2020/12/25 12:32:02;;;;;;;1.73;1.17;;;;;;;;;;5109424;28;20028;-69
2020/12/25 12:34:28;;;;;;;0.60;0.60;;;;;;;;;;5108689;28;20023;-69
2020/12/25 12:36:54;;;;;;;1.55;1.45;;;;;;;;;;5102771;28;20027;-69
2020/12/25 12:39:21;;;;;;;0.98;0.90;;;;;;;;;;5088589;28;20526;-69
2020/12/25 12:41:47;;;;;;;0.88;0.88;;;;;;;;;;5088697;28;20036;-69
2020/12/25 12:44:13;;;;;;;1.10;1.00;;;;;;;;;;5088348;28;20048;-69
2020/12/25 12:46:39;;;;;;;1.27;1.17;;;;;;;;;;5088341;28;20032;-69
2020/12/25 12:49:05;;;;;;;1.58;0.77;;;;;;;;;;5088152;28;20032;-69
2020/12/25 12:51:31;;;;;;;1.98;1.48;;;;;;;;;;5088758;28;20496;-69
2020/12/25 12:53:57;;;;;;;1.00;1.00;;;;;;;;;;5087487;28;20031;-69
2020/12/25 12:56:23;;;;;;;1.02;0.75;;;;;;;;;;5088260;28;20386;-69
2020/12/25 12:58:49;;;;;;;2.05;1.00;;;;;;;;;;5087910;28;20086;-69
2020/12/25 13:01:22;;;;;;;1.00;0.73;;;;;;;;;;5089132;28;20020;-69
2020/12/25 13:03:48;;;;;;;1.77;0.85;;;;;;;;;;5087564;28;20024;-69
2020/12/25 13:06:14;;;;;;;0.80;0.80;;;;;;;;;;5087472;28;20635;-69
2020/12/25 13:08:40;;;;;;;1.67;0.90;;;;;;;;;;5079303;28;20020;-69
2020/12/25 13:11:06;;;;;;;2.10;1.85;;;;;;;;;;5088742;28;20047;-69
2020/12/25 13:13:32;;;;;;;1.40;1.23;;;;;;;;;;5087823;28;20573;-69
2020/12/25 13:15:58;;;;;;;1.10;1.00;;;;;;;;;;5087216;28;20081;-69
2020/12/25 13:18:24;;;;;;;0.85;0.82;;;;;;;;;;5104012;28;20251;-69
2020/12/25 13:20:50;;;;;;;2.10;0.80;;;;;;;;;;5107985;28;20132;-69
2020/12/25 13:23:17;;;;;;;1.08;1.00;;;;;;;;;;5108338;28;20024;-69
2020/12/25 13:25:43;;;;;;;1.65;1.20;;;;;;;;;;5107325;28;20088;-69
2020/12/25 13:28:09;;;;;;;1.75;1.40;;;;;;;;;;5107699;28;20124;-69
2020/12/25 13:30:35;;;;;;;1.83;1.50;;;;;;;;;;5108431;28;20110;-69
2020/12/25 13:33:01;;;;;;;1.10;1.00;;;;;;;;;;5107133;28;20034;-69
2020/12/25 13:35:27;;;;;;;1.05;0.95;;;;;;;;;;5106711;28;20026;-69
2020/12/25 13:37:53;;;;;;;0.85;0.82;;;;;;;;;;5107554;28;20032;-69
2020/12/25 13:40:19;;;;;;;1.10;1.00;;;;;;;;;;5107796;28;20023;-69
2020/12/25 13:42:45;;;;;;;2.22;1.75;;;;;;;;;;5107239;28;20222;-69
2020/12/25 13:45:11;;;;;;;2.15;1.70;;;;;;;;;;5107397;28;20108;-69
2020/12/25 13:47:38;;;;;;;1.73;1.38;;;;;;;;;;5102117;28;20024;-69
2020/12/25 13:50:04;;;;;;;2.10;1.30;;;;;;;;;;5087813;28;20119;-69
2020/12/25 13:52:30;;;;;;;1.83;1.55;;;;;;;;;;5087858;28;20122;-69
2020/12/25 13:54:56;;;;;;;2.13;1.30;;;;;;;;;;5087022;28;20693;-69
2020/12/25 13:57:22;;;;;;;1.27;1.10;;;;;;;;;;5088021;28;20303;-69
2020/12/25 13:59:49;;;;;;;1.55;1.45;;;;;;;;;;5087643;28;20024;-69
2020/12/25 14:02:15;;;;;;;1.52;1.42;;;;;;;;;;5087502;28;20394;-69
2020/12/25 14:04:41;;;;;;;1.80;1.25;;;;;;;;;;5086161;28;20024;-69
2020/12/25 14:07:07;;;;;;;2.65;1.20;;;;;;;;;;5087192;28;20424;-69
2020/12/25 14:09:33;;;;;;;3.85;2.80;;;;;;;;;;5087703;28;20028;-69
2020/12/25 14:11:59;;;;;;;1.75;1.65;;;;;;;;;;5087170;28;20031;-69
2020/12/25 14:14:26;;;;;;;2.53;1.25;;;;;;;;;;5087153;28;20104;-69
2020/12/25 14:16:52;;;;;;;1.40;1.27;;;;;;;;;;5086332;28;20116;-69
2020/12/25 14:19:19;;;;;;;2.78;1.95;;;;;;;;;;5088326;28;20024;-69
2020/12/25 14:21:45;;;;;;;2.50;1.45;;;;;;;;;;5086819;28;20418;-69
2020/12/25 14:24:11;;;;;;;1.67;1.50;;;;;;;;;;5087063;28;20035;-69
2020/12/25 14:26:38;;;;;;;0.98;0.65;;;;;;;;;;5087449;28;20016;-69
2020/12/25 14:29:05;;;;;;;2.00;1.42;;;;;;;;;;5086893;28;20407;-69
2020/12/25 14:31:35;;;;;;;1.77;1.33;;;;;;;;;;5087617;28;20043;-69
2020/12/25 14:34:01;;;;;;;1.52;1.42;;;;;;;;;;5085748;28;20141;-69
2020/12/25 14:36:27;;;;;;;2.38;1.27;;;;;;;;;;5086511;28;20031;-69
2020/12/25 14:38:53;;;;;;;1.50;1.33;;;;;;;;;;5107332;28;20077;-69
2020/12/25 14:41:22;;;;;;;1.98;1.40;;;;;;;;;;5108173;28;20024;-69